createdAt,value
2019-05-06T00:00:34.886Z,99.10
2019-05-06T00:03:05.250Z,99.30
2019-05-06T00:05:34.931Z,99.10
2019-05-06T00:08:05.092Z,99.30
2019-05-06T00:10:36.011Z,99.90
2019-05-06T00:13:06.109Z,99.90
2019-05-06T00:15:37.797Z,99.70
2019-05-06T00:18:08.503Z,99.50
2019-05-06T00:20:38.759Z,98.90
2019-05-06T00:23:15.123Z,99.40
2019-05-06T00:26:06.804Z,99.50
2019-05-06T00:28:42.040Z,98.70
2019-05-06T00:31:16.599Z,99.70
2019-05-06T00:33:46.695Z,99.80
2019-05-06T00:36:16.882Z,99.90
2019-05-06T00:38:49.110Z,99.70
2019-05-06T00:41:26.208Z,99.90
2019-05-06T00:43:55.897Z,99.90
2019-05-06T00:46:26.228Z,99.80
2019-05-06T00:48:55.840Z,99.60
2019-05-06T00:51:25.766Z,99.60
2019-05-06T00:54:11.626Z,99.50
2019-05-06T00:56:41.315Z,99.20
2019-05-06T00:59:10.964Z,99.90
2019-05-06T01:01:40.696Z,99.20
2019-05-06T01:04:10.355Z,99.90
2019-05-06T01:06:40.116Z,99.90
2019-05-06T01:09:14.086Z,99.90
2019-05-06T01:11:45.318Z,99.90
2019-05-06T01:14:20.167Z,99.90
2019-05-06T01:16:49.862Z,99.90
2019-05-06T01:19:19.517Z,99.70
2019-05-06T01:21:49.412Z,99.90
2019-05-06T01:24:19.708Z,99.90
2019-05-06T01:26:49.397Z,99.80
2019-05-06T01:29:19.100Z,99.80
2019-05-06T01:31:48.759Z,99.70
2019-05-06T01:34:18.432Z,99.80
2019-05-06T01:36:48.103Z,99.80
2019-05-06T01:39:28.422Z,99.80
2019-05-06T01:42:04.567Z,99.90
2019-05-06T01:44:34.286Z,99.90
2019-05-06T01:47:03.935Z,99.90
2019-05-06T01:49:34.062Z,99.90
2019-05-06T01:52:04.388Z,99.90
2019-05-06T01:54:34.456Z,99.90
2019-05-06T01:57:04.749Z,99.90
2019-05-06T01:59:34.495Z,99.90
2019-05-06T02:02:04.665Z,99.90
2019-05-06T02:04:34.388Z,99.90
2019-05-06T02:07:04.400Z,99.90
2019-05-06T02:09:34.435Z,99.90
2019-05-06T02:12:04.782Z,99.90
2019-05-06T02:14:34.812Z,99.90
2019-05-06T02:17:04.477Z,99.90
2019-05-06T02:19:35.244Z,99.90
2019-05-06T02:22:15.133Z,99.90
2019-05-06T02:24:57.669Z,99.90
2019-05-06T02:27:27.695Z,99.90
2019-05-06T02:30:05.494Z,99.90
2019-05-06T02:32:49.934Z,99.90
2019-05-06T02:35:26.090Z,99.90
2019-05-06T02:37:55.221Z,99.90
2019-05-06T02:40:27.360Z,99.90
2019-05-06T02:42:57.091Z,99.90
2019-05-06T02:45:27.135Z,99.90
2019-05-06T02:48:18.257Z,99.90
2019-05-06T02:51:16.440Z,99.90
2019-05-06T02:53:46.457Z,99.90
2019-05-06T02:56:16.624Z,99.90
2019-05-06T02:58:46.327Z,99.90
2019-05-06T03:01:17.314Z,99.90
2019-05-06T03:03:47.483Z,99.90
2019-05-06T03:06:18.220Z,99.90
2019-05-06T03:08:48.022Z,99.90
2019-05-06T03:11:18.105Z,99.90
2019-05-06T03:13:48.056Z,99.90
2019-05-06T03:16:18.028Z,99.90
2019-05-06T03:18:47.898Z,99.90
2019-05-06T03:21:37.147Z,99.90
2019-05-06T03:24:45.701Z,99.90
2019-05-06T03:27:15.713Z,99.90
2019-05-06T03:29:46.168Z,99.90
2019-05-06T03:32:22.989Z,99.90
2019-05-06T03:35:07.849Z,99.90
2019-05-06T03:37:19.795Z,99.90
2019-05-06T03:39:52.647Z,99.90
2019-05-06T03:42:23.060Z,99.90
2019-05-06T03:44:56.957Z,99.90
2019-05-06T03:47:50.233Z,99.90
2019-05-06T03:50:24.209Z,99.90
2019-05-06T03:52:56.431Z,99.90
2019-05-06T03:55:26.261Z,99.90
2019-05-06T03:57:57.473Z,99.90
2019-05-06T04:00:27.529Z,99.90
2019-05-06T04:02:57.715Z,99.90
2019-05-06T04:05:27.659Z,99.90
2019-05-06T04:07:58.457Z,99.90
2019-05-06T04:10:28.209Z,99.90
2019-05-06T04:13:03.801Z,99.90
2019-05-06T04:15:54.305Z,99.90
2019-05-06T04:18:25.749Z,99.90
2019-05-06T04:21:08.621Z,99.90
2019-05-06T04:23:45.671Z,99.90
2019-05-06T04:26:33.139Z,99.90
2019-05-06T04:29:04.109Z,99.90
2019-05-06T04:31:35.157Z,99.90
2019-05-06T04:34:13.909Z,99.90
2019-05-06T04:36:36.802Z,99.90
2019-05-06T04:39:07.606Z,99.90
2019-05-06T04:41:37.549Z,99.90
2019-05-06T04:44:07.633Z,99.90
2019-05-06T04:46:37.573Z,99.90
2019-05-06T04:49:14.085Z,99.90
2019-05-06T04:51:43.144Z,99.90
2019-05-06T04:54:13.424Z,99.90
2019-05-06T04:56:43.945Z,99.90
2019-05-06T04:59:14.666Z,99.90
2019-05-06T05:01:45.533Z,99.90
2019-05-06T05:04:28.312Z,99.90
2019-05-06T05:06:47.727Z,99.90
2019-05-06T05:09:17.729Z,99.90
2019-05-06T05:11:53.310Z,99.90
2019-05-06T05:14:32.769Z,99.90
2019-05-06T05:17:08.108Z,99.90
2019-05-06T05:19:38.156Z,99.90
2019-05-06T05:22:07.848Z,99.90
2019-05-06T05:24:38.684Z,99.90
2019-05-06T05:27:08.853Z,99.90
2019-05-06T05:29:39.022Z,99.90
2019-05-06T05:32:09.055Z,99.90
2019-05-06T05:34:40.808Z,99.90
2019-05-06T05:37:12.127Z,99.90
2019-05-06T05:39:42.622Z,99.90
2019-05-06T05:42:22.138Z,99.90
2019-05-06T05:44:52.882Z,99.90
2019-05-06T05:47:23.599Z,99.90
2019-05-06T05:50:13.232Z,99.90
2019-05-06T05:52:43.463Z,99.90
2019-05-06T05:55:13.465Z,99.90
2019-05-06T05:57:43.612Z,99.90
2019-05-06T06:00:14.072Z,99.90
2019-05-06T06:02:44.370Z,99.90
2019-05-06T06:05:14.180Z,99.90
2019-05-06T06:07:44.195Z,99.90
2019-05-06T06:10:22.581Z,99.90
2019-05-06T06:12:53.064Z,99.90
2019-05-06T06:15:46.395Z,99.90
2019-05-06T06:18:24.314Z,99.90
2019-05-06T06:21:16.938Z,99.90
2019-05-06T06:23:38.044Z,99.90
2019-05-06T06:26:07.927Z,99.90
2019-05-06T06:28:37.697Z,99.90
2019-05-06T06:31:24.724Z,99.90
2019-05-06T06:33:59.387Z,99.90
2019-05-06T06:36:36.061Z,99.90
2019-05-06T06:39:13.370Z,99.90
2019-05-06T06:41:43.537Z,99.90
2019-05-06T06:44:16.442Z,99.90
2019-05-06T06:46:46.649Z,99.90
2019-05-06T06:49:16.295Z,99.90
2019-05-06T06:51:46.089Z,99.90
2019-05-06T06:54:15.883Z,99.90
2019-05-06T06:57:05.638Z,99.90
2019-05-06T06:59:39.096Z,99.90
2019-05-06T07:02:25.808Z,99.90
2019-05-06T07:05:27.138Z,99.90
2019-05-06T07:07:49.112Z,99.90
2019-05-06T07:10:36.062Z,99.90
2019-05-06T07:13:05.701Z,99.90
2019-05-06T07:15:35.348Z,99.90
2019-05-06T07:18:05.132Z,99.90
2019-05-06T07:20:40.235Z,99.90
2019-05-06T07:23:38.236Z,99.90
2019-05-06T07:26:09.344Z,99.90
2019-05-06T07:28:39.013Z,99.90
2019-05-06T07:31:18.686Z,99.90
2019-05-06T07:33:42.711Z,99.90
2019-05-06T07:36:13.048Z,99.90
2019-05-06T07:38:52.364Z,98.20
2019-05-06T07:41:27.578Z,97.50
2019-05-06T07:44:22.565Z,98.10
2019-05-06T07:47:15.748Z,98.90
2019-05-06T07:49:45.505Z,96.80
2019-05-06T07:52:17.236Z,95.70
2019-05-06T07:54:46.459Z,95.30
2019-05-06T07:57:16.229Z,95.30
2019-05-06T07:59:46.462Z,93.90
2019-05-06T08:02:16.140Z,95.60
2019-05-06T08:04:46.741Z,97.40
2019-05-06T08:07:16.373Z,99.90
2019-05-06T08:09:46.438Z,99.90
2019-05-06T08:12:16.121Z,99.10
2019-05-06T08:14:45.965Z,99.30
2019-05-06T08:17:22.301Z,99.90
2019-05-06T08:19:52.882Z,99.90
2019-05-06T08:22:42.263Z,99.90
2019-05-06T08:25:12.348Z,99.40
2019-05-06T08:27:42.534Z,99.50
2019-05-06T08:30:13.806Z,99.00
2019-05-06T08:32:43.872Z,99.90
2019-05-06T08:35:14.945Z,97.60
2019-05-06T08:37:44.767Z,98.60
2019-05-06T08:40:14.702Z,96.60
2019-05-06T08:42:44.377Z,97.30
2019-05-06T08:45:14.790Z,97.70
2019-05-06T08:47:44.460Z,99.90
2019-05-06T08:50:32.350Z,99.90
2019-05-06T08:53:16.071Z,99.90
2019-05-06T08:55:46.232Z,99.90
2019-05-06T08:58:16.198Z,99.90
2019-05-06T09:00:57.387Z,99.90
2019-05-06T09:03:25.301Z,99.90
2019-05-06T09:05:55.399Z,99.90
2019-05-06T09:08:25.512Z,99.90
2019-05-06T09:10:55.479Z,99.90
2019-05-06T09:13:25.755Z,99.90
2019-05-06T09:15:55.708Z,99.90
2019-05-06T09:18:25.579Z,99.90
2019-05-06T09:20:55.961Z,99.90
2019-05-06T09:23:27.623Z,99.90
2019-05-06T09:25:58.345Z,99.90
2019-05-06T09:28:47.226Z,99.90
2019-05-06T09:31:22.928Z,99.90
2019-05-06T09:33:56.840Z,99.90
2019-05-06T09:36:39.996Z,98.70
2019-05-06T09:38:58.565Z,99.90
2019-05-06T09:41:28.537Z,99.50
2019-05-06T09:43:58.430Z,99.90
2019-05-06T09:46:28.148Z,99.90
2019-05-06T09:49:25.980Z,99.90
2019-05-06T09:51:56.068Z,99.90
2019-05-06T09:54:33.609Z,99.90
2019-05-06T09:57:07.015Z,99.90
2019-05-06T09:59:37.130Z,99.90
2019-05-06T10:02:07.267Z,99.90
2019-05-06T10:04:37.333Z,99.90
2019-05-06T10:07:07.417Z,99.90
2019-05-06T10:09:38.303Z,99.90
2019-05-06T10:12:08.435Z,99.90
2019-05-06T10:14:40.112Z,99.90
2019-05-06T10:17:13.012Z,99.90
2019-05-06T10:19:42.961Z,99.90
2019-05-06T10:22:13.537Z,99.90
2019-05-06T10:24:45.278Z,99.90
2019-05-06T10:27:16.527Z,99.90
2019-05-06T10:30:03.025Z,99.90
2019-05-06T10:32:42.720Z,99.90
2019-05-06T10:35:14.982Z,99.90
2019-05-06T10:38:02.935Z,99.90
2019-05-06T10:40:48.648Z,99.90
2019-05-06T10:43:23.349Z,99.90
2019-05-06T10:45:53.680Z,99.90
2019-05-06T10:48:24.310Z,99.90
2019-05-06T10:51:03.566Z,99.90
2019-05-06T10:53:33.434Z,99.90
2019-05-06T10:56:23.061Z,99.90
2019-05-06T10:58:52.922Z,99.90
2019-05-06T11:01:28.570Z,99.90
2019-05-06T11:03:58.373Z,99.90
2019-05-06T11:06:28.358Z,99.90
2019-05-06T11:08:58.307Z,99.90
2019-05-06T11:11:35.019Z,99.90
2019-05-06T11:13:59.588Z,99.90
2019-05-06T11:16:29.540Z,99.90
2019-05-06T11:18:59.488Z,99.90
2019-05-06T11:21:29.885Z,99.90
2019-05-06T11:23:59.946Z,99.80
2019-05-06T11:26:29.980Z,99.90
2019-05-06T11:29:05.238Z,99.90
2019-05-06T11:31:54.452Z,99.70
2019-05-06T11:34:49.023Z,98.50
2019-05-06T11:37:22.989Z,99.30
2019-05-06T11:39:52.844Z,98.10
2019-05-06T11:42:29.011Z,98.60
2019-05-06T11:44:54.632Z,98.10
2019-05-06T11:47:26.226Z,97.80
2019-05-06T11:49:57.746Z,98.30
2019-05-06T11:52:27.468Z,99.00
2019-05-06T11:54:57.634Z,97.50
2019-05-06T11:57:27.292Z,97.60
2019-05-06T11:59:57.303Z,98.00
2019-05-06T12:02:28.021Z,98.20
2019-05-06T12:04:57.986Z,97.60
2019-05-06T12:07:27.635Z,97.70
2019-05-06T12:09:57.468Z,97.40
2019-05-06T12:12:27.262Z,95.70
2019-05-06T12:14:57.295Z,96.70
2019-05-06T12:17:27.166Z,96.00
2019-05-06T12:19:57.156Z,97.40
2019-05-06T12:22:35.931Z,95.60
2019-05-06T12:25:14.966Z,97.70
2019-05-06T12:27:45.408Z,97.30
2019-05-06T12:30:25.037Z,98.70
2019-05-06T12:33:13.894Z,98.10
2019-05-06T12:35:47.644Z,98.30
2019-05-06T12:38:30.465Z,97.20
2019-05-06T12:40:59.463Z,97.80
2019-05-06T12:43:47.219Z,98.70
2019-05-06T12:46:24.701Z,98.10
2019-05-06T12:48:56.432Z,98.90
2019-05-06T12:51:26.582Z,98.20
2019-05-06T12:53:58.231Z,98.30
2019-05-06T12:56:28.816Z,98.10
2019-05-06T12:58:58.993Z,96.70
2019-05-06T13:01:28.860Z,99.30
2019-05-06T13:03:58.604Z,98.70
2019-05-06T13:06:28.369Z,97.30
2019-05-06T13:09:01.729Z,97.60
2019-05-06T13:11:30.406Z,98.90
2019-05-06T13:14:01.888Z,97.30
2019-05-06T13:16:33.436Z,98.00
2019-05-06T13:19:03.558Z,97.00
2019-05-06T13:21:34.760Z,98.50
2019-05-06T13:24:06.343Z,98.30
2019-05-06T13:26:36.780Z,98.30
2019-05-06T13:29:13.036Z,99.70
2019-05-06T13:31:43.688Z,98.70
2019-05-06T13:34:18.032Z,99.90
2019-05-06T13:36:48.181Z,99.70
2019-05-06T13:39:18.191Z,98.40
2019-05-06T13:41:48.252Z,99.40
2019-05-06T13:44:19.401Z,99.20
2019-05-06T13:46:55.704Z,98.90
2019-05-06T13:49:44.059Z,99.80
2019-05-06T13:52:16.057Z,99.90
2019-05-06T13:54:45.846Z,99.80
2019-05-06T13:57:16.008Z,99.70
2019-05-06T13:59:45.883Z,99.90
2019-05-06T14:02:22.170Z,99.80
2019-05-06T14:04:52.697Z,99.90
2019-05-06T14:07:24.256Z,99.90
2019-05-06T14:09:54.132Z,99.90
2019-05-06T14:12:24.059Z,99.90
2019-05-06T14:14:54.157Z,99.90
2019-05-06T14:17:24.381Z,99.40
2019-05-06T14:19:54.564Z,99.90
2019-05-06T14:22:24.728Z,99.90
2019-05-06T14:25:12.659Z,99.50
2019-05-06T14:27:43.636Z,99.60
2019-05-06T14:30:18.704Z,99.90
2019-05-06T14:32:48.681Z,98.90
2019-05-06T14:35:18.466Z,99.60
2019-05-06T14:37:48.294Z,99.60
2019-05-06T14:40:22.568Z,99.70
2019-05-06T14:42:53.135Z,99.90
2019-05-06T14:45:22.972Z,99.90
2019-05-06T14:47:52.822Z,99.90
2019-05-06T14:50:30.692Z,99.90
2019-05-06T14:52:54.540Z,99.90
2019-05-06T14:55:28.911Z,99.80
2019-05-06T14:57:58.960Z,99.90
2019-05-06T15:00:28.816Z,99.90
2019-05-06T15:02:58.460Z,99.90
2019-05-06T15:05:28.856Z,99.90
2019-05-06T15:08:01.056Z,99.90
2019-05-06T15:10:32.310Z,99.90
2019-05-06T15:13:02.228Z,99.90
2019-05-06T15:15:32.378Z,99.90
2019-05-06T15:18:02.890Z,99.90
2019-05-06T15:20:34.265Z,99.90
2019-05-06T15:23:04.455Z,99.90
2019-05-06T15:25:35.312Z,99.90
2019-05-06T15:28:04.984Z,99.90
2019-05-06T15:30:47.283Z,99.90
2019-05-06T15:33:22.413Z,99.90
2019-05-06T15:36:04.096Z,99.90
2019-05-06T15:38:33.945Z,99.90
2019-05-06T15:41:03.627Z,99.90
2019-05-06T15:43:33.695Z,99.90
2019-05-06T15:46:03.726Z,99.90
2019-05-06T15:48:33.533Z,99.90
2019-05-06T15:51:03.427Z,99.90
2019-05-06T15:53:33.311Z,99.90
2019-05-06T15:56:03.380Z,99.90
2019-05-06T15:58:33.332Z,99.90
2019-05-06T16:01:03.349Z,99.90
2019-05-06T16:03:33.562Z,99.90
2019-05-06T16:06:03.328Z,99.90
2019-05-06T16:08:33.211Z,99.90
2019-05-06T16:11:03.024Z,99.90
2019-05-06T16:13:32.742Z,99.90
2019-05-06T16:16:03.343Z,99.90
2019-05-06T16:18:33.718Z,99.90
2019-05-06T16:21:03.639Z,99.90
2019-05-06T16:23:47.072Z,99.90
2019-05-06T16:26:16.762Z,99.90
2019-05-06T16:28:46.467Z,99.90
2019-05-06T16:31:16.601Z,99.90
2019-05-06T16:33:46.249Z,99.90
2019-05-06T16:36:15.957Z,99.90
2019-05-06T16:38:45.596Z,99.90
2019-05-06T16:41:16.346Z,99.90
2019-05-06T16:43:46.138Z,99.90
2019-05-06T16:46:16.091Z,99.90
2019-05-06T16:48:45.751Z,99.90
2019-05-06T16:51:15.764Z,99.90
2019-05-06T16:53:45.456Z,99.90
2019-05-06T16:56:29.496Z,99.90
2019-05-06T16:59:02.897Z,99.90
2019-05-06T17:01:34.493Z,99.90
2019-05-06T17:04:23.213Z,99.90
2019-05-06T17:06:54.819Z,99.90
2019-05-06T17:09:27.636Z,99.90
2019-05-06T17:11:58.751Z,99.90
2019-05-06T17:14:28.833Z,99.90
2019-05-06T17:16:58.869Z,99.90
2019-05-06T17:19:28.668Z,99.90
2019-05-06T17:21:58.730Z,99.90
2019-05-06T17:24:28.576Z,99.90
2019-05-06T17:26:58.440Z,99.90
2019-05-06T17:30:05.374Z,99.90
2019-05-06T17:32:44.123Z,99.90
2019-05-06T17:35:14.024Z,99.90
2019-05-06T17:37:55.827Z,99.90
2019-05-06T17:40:25.725Z,99.90
2019-05-06T17:42:55.578Z,99.90
2019-05-06T17:45:59.415Z,99.90
2019-05-06T17:48:42.448Z,99.90
2019-05-06T17:51:17.497Z,99.90
2019-05-06T17:53:52.194Z,99.90
2019-05-06T17:56:22.341Z,99.90
2019-05-06T17:58:53.151Z,99.90
2019-05-06T18:01:41.502Z,99.90
2019-05-06T18:04:12.601Z,99.90
2019-05-06T18:06:43.051Z,99.90
2019-05-06T18:09:12.893Z,99.90
2019-05-06T18:11:57.148Z,99.90
2019-05-06T18:14:14.860Z,99.90
2019-05-06T18:16:44.822Z,99.90
2019-05-06T18:19:14.971Z,99.90
2019-05-06T18:21:45.236Z,99.90
2019-05-06T18:24:15.646Z,99.90
2019-05-06T18:26:45.916Z,99.90
2019-05-06T18:29:16.166Z,99.90
2019-05-06T18:31:46.950Z,99.90
2019-05-06T18:34:17.214Z,99.90
2019-05-06T18:36:47.026Z,99.90
2019-05-06T18:39:17.111Z,99.90
2019-05-06T18:41:46.783Z,99.90
2019-05-06T18:44:18.010Z,99.90
2019-05-06T18:46:48.030Z,99.90
2019-05-06T18:49:18.434Z,99.90
2019-05-06T18:51:51.249Z,99.90
2019-05-06T18:54:21.935Z,99.90
2019-05-06T18:56:52.274Z,99.90
2019-05-06T18:59:23.145Z,99.90
2019-05-06T19:01:53.905Z,99.90
2019-05-06T19:04:29.548Z,99.90
2019-05-06T19:07:10.639Z,99.90
2019-05-06T19:09:42.344Z,99.90
2019-05-06T19:12:12.636Z,99.90
2019-05-06T19:14:43.214Z,99.90
2019-05-06T19:17:13.480Z,99.90
2019-05-06T19:19:43.636Z,99.90
2019-05-06T19:22:14.136Z,99.90
2019-05-06T19:24:44.844Z,99.90
2019-05-06T19:27:15.176Z,99.90
2019-05-06T19:29:45.351Z,99.90
2019-05-06T19:32:14.987Z,99.90
2019-05-06T19:34:47.254Z,99.90
2019-05-06T19:37:17.650Z,99.90
2019-05-06T19:39:47.645Z,99.90
2019-05-06T19:42:17.629Z,99.90
2019-05-06T19:44:47.633Z,99.90
2019-05-06T19:47:17.660Z,99.90
2019-05-06T19:49:47.653Z,99.90
2019-05-06T19:52:17.483Z,99.90
2019-05-06T19:54:47.216Z,99.90
2019-05-06T19:57:17.101Z,99.90
2019-05-06T19:59:48.333Z,99.90
2019-05-06T20:02:18.295Z,99.90
2019-05-06T20:04:53.167Z,99.90
2019-05-06T20:07:33.284Z,99.90
2019-05-06T20:10:15.144Z,99.90
2019-05-06T20:13:01.213Z,99.90
2019-05-06T20:15:37.925Z,99.90
2019-05-06T20:18:08.556Z,99.90
2019-05-06T20:20:39.045Z,99.90
2019-05-06T20:23:09.110Z,99.90
2019-05-06T20:25:38.843Z,99.90
2019-05-06T20:28:08.819Z,99.90
2019-05-06T20:30:38.477Z,99.90
2019-05-06T20:33:08.372Z,99.90
2019-05-06T20:35:38.051Z,99.90
2019-05-06T20:38:08.033Z,99.90
2019-05-06T20:40:38.549Z,99.90
2019-05-06T20:43:17.460Z,99.90
2019-05-06T20:45:42.842Z,99.90
2019-05-06T20:48:13.121Z,99.90
2019-05-06T20:50:43.344Z,99.90
2019-05-06T20:53:13.416Z,99.90
2019-05-06T20:55:43.640Z,99.90
2019-05-06T20:58:13.608Z,99.90
2019-05-06T21:00:43.640Z,99.90
2019-05-06T21:03:13.412Z,99.90
2019-05-06T21:05:43.703Z,99.90
2019-05-06T21:08:13.415Z,99.90
2019-05-06T21:10:43.564Z,99.90
2019-05-06T21:13:13.512Z,99.90
2019-05-06T21:15:44.747Z,99.90
2019-05-06T21:18:14.874Z,99.90
2019-05-06T21:20:44.887Z,99.90
2019-05-06T21:23:14.840Z,99.90
2019-05-06T21:25:44.735Z,99.90
2019-05-06T21:28:14.851Z,99.90
2019-05-06T21:30:44.772Z,99.90
2019-05-06T21:33:14.904Z,99.90
2019-05-06T21:35:45.121Z,99.90
2019-05-06T21:38:15.051Z,99.90
2019-05-06T21:40:44.895Z,99.90
2019-05-06T21:43:14.880Z,99.90
2019-05-06T21:45:44.585Z,99.90
2019-05-06T21:48:14.496Z,99.90
2019-05-06T21:50:44.172Z,99.90
2019-05-06T21:53:14.842Z,99.90
2019-05-06T21:55:44.579Z,99.90
2019-05-06T21:58:14.880Z,99.90
2019-05-06T22:00:59.105Z,99.90
2019-05-06T22:03:29.414Z,99.90
2019-05-06T22:06:02.062Z,99.90
2019-05-06T22:08:32.841Z,99.90
2019-05-06T22:11:03.109Z,99.90
2019-05-06T22:13:33.470Z,99.90
2019-05-06T22:16:04.732Z,99.90
2019-05-06T22:18:35.189Z,99.90
2019-05-06T22:21:32.054Z,99.90
2019-05-06T22:24:05.877Z,99.90
2019-05-06T22:26:35.703Z,99.90
2019-05-06T22:29:05.885Z,99.90
2019-05-06T22:31:36.062Z,99.90
2019-05-06T22:34:06.208Z,99.90
2019-05-06T22:36:36.355Z,99.90
2019-05-06T22:39:07.160Z,99.90
2019-05-06T22:41:36.830Z,99.90
2019-05-06T22:44:13.529Z,99.90
2019-05-06T22:46:37.952Z,99.90
2019-05-06T22:49:07.633Z,99.90
2019-05-06T22:51:37.276Z,99.90
2019-05-06T22:54:07.208Z,99.90
2019-05-06T22:56:36.842Z,99.90
2019-05-06T22:59:06.526Z,99.90
2019-05-06T23:01:55.047Z,99.90
2019-05-06T23:04:26.484Z,99.90
2019-05-06T23:06:56.994Z,99.90
2019-05-06T23:09:27.063Z,99.90
2019-05-06T23:11:58.567Z,99.90
2019-05-06T23:14:31.790Z,99.90
2019-05-06T23:17:00.259Z,99.90
2019-05-06T23:19:31.832Z,99.90
2019-05-06T23:22:03.951Z,99.90
2019-05-06T23:24:33.445Z,99.90
2019-05-06T23:27:03.133Z,99.90
2019-05-06T23:29:33.150Z,99.90
2019-05-06T23:32:03.063Z,99.90
2019-05-06T23:34:32.648Z,99.90
2019-05-06T23:37:22.812Z,99.90
2019-05-06T23:40:36.403Z,99.90
2019-05-06T23:43:42.754Z,99.90
2019-05-06T23:46:48.532Z,99.90
2019-05-06T23:49:53.851Z,99.90
2019-05-06T23:52:58.847Z,99.90
2019-05-06T23:56:04.403Z,99.90
2019-05-06T23:58:34.968Z,99.90
